Time;durP1;ratioP1;P1;durP2;ratioP2;P2;SDS_P1;SDS_P2;PMS_P1;PMS_P2;Temp;Humidity;BMP_temperature;BMP_pressure;BME280_temperature;BME280_humidity;BME280_pressure;Samples;Min_cycle;Max_cycle;Signal;HPM_P1;HPM_P2
2023/10/20 00:00:07;;;;;;;21.98;1.63;;;15.30;99.90;;;;;;5007196;28;20033;-73
2023/10/20 00:02:34;;;;;;;20.05;1.88;;;15.30;99.90;;;;;;5015600;28;20033;-73
2023/10/20 00:05:03;;;;;;;13.70;1.60;;;15.20;99.90;;;;;;5008206;28;20132;-73
2023/10/20 00:07:30;;;;;;;20.08;1.92;;;15.20;99.90;;;;;;5021514;28;20087;-73
2023/10/20 00:09:55;;;;;;;13.30;1.60;;;15.20;99.90;;;;;;4997896;28;20025;-73
2023/10/20 00:12:21;;;;;;;22.88;2.08;;;15.30;99.90;;;;;;5018790;28;20091;-73
2023/10/20 00:14:47;;;;;;;17.85;1.65;;;15.30;99.90;;;;;;5002159;28;20039;-73
2023/10/20 00:17:13;;;;;;;12.20;1.38;;;15.30;99.90;;;;;;5012652;28;20619;-73
2023/10/20 00:19:38;;;;;;;9.38;1.55;;;15.30;99.90;;;;;;5019639;28;20369;-74
2023/10/20 00:22:04;;;;;;;12.90;1.40;;;15.30;99.90;;;;;;4999984;28;20370;-74
2023/10/20 00:24:30;;;;;;;12.90;1.58;;;15.30;99.90;;;;;;5018190;28;20540;-73
2023/10/20 00:26:56;;;;;;;15.63;1.67;;;15.30;99.90;;;;;;5007718;28;20033;-73
2023/10/20 00:29:22;;;;;;;10.45;1.20;;;15.20;99.90;;;;;;5014013;28;20080;-73
2023/10/20 00:31:48;;;;;;;11.48;1.35;;;15.30;99.90;;;;;;5009827;28;20112;-73
2023/10/20 00:34:14;;;;;;;20.67;2.28;;;15.20;99.90;;;;;;5014307;28;20231;-73
2023/10/20 00:36:39;;;;;;;16.95;1.48;;;15.30;99.90;;;;;;5002214;28;20052;-74
2023/10/20 00:39:06;;;;;;;16.98;2.75;;;15.20;99.90;;;;;;5017995;28;20117;-73
2023/10/20 00:41:34;;;;;;;12.82;1.67;;;15.30;99.90;;;;;;5001318;28;20502;-73
2023/10/20 00:44:00;;;;;;;14.75;1.60;;;15.30;99.90;;;;;;5014660;28;20494;-73
2023/10/20 00:46:26;;;;;;;14.50;1.77;;;15.30;99.90;;;;;;5003275;28;20041;-73
2023/10/20 00:48:52;;;;;;;12.68;1.77;;;15.30;99.90;;;;;;5014944;28;20182;-73
2023/10/20 00:51:18;;;;;;;8.13;1.20;;;15.30;99.90;;;;;;5001962;28;20052;-74
2023/10/20 00:53:47;;;;;;;10.80;1.30;;;15.30;99.90;;;;;;5018429;28;20084;-73
2023/10/20 00:56:14;;;;;;;10.40;1.27;;;15.30;99.90;;;;;;5003161;28;20040;-74
2023/10/20 00:58:40;;;;;;;10.80;1.55;;;15.20;99.90;;;;;;5022003;28;20033;-73
2023/10/20 01:01:06;;;;;;;16.00;2.10;;;15.20;99.90;;;;;;5018645;28;20095;-74
2023/10/20 01:03:33;;;;;;;10.98;1.45;;;15.20;99.90;;;;;;5001685;28;20029;-74
2023/10/20 01:06:00;;;;;;;14.80;1.77;;;15.30;99.90;;;;;;5017254;28;20040;-74
2023/10/20 01:08:26;;;;;;;15.57;1.92;;;15.30;99.90;;;;;;5006189;28;20438;-72
2023/10/20 01:10:53;;;;;;;12.23;1.52;;;15.20;99.90;;;;;;5011734;28;20112;-76
2023/10/20 01:13:19;;;;;;;9.45;1.20;;;15.30;99.90;;;;;;5003652;28;20034;-73
2023/10/20 01:15:46;;;;;;;8.05;1.00;;;15.20;99.90;;;;;;5011126;28;20436;-73
2023/10/20 01:18:11;;;;;;;12.07;1.63;;;15.20;99.90;;;;;;5006938;28;20795;-74
2023/10/20 01:20:38;;;;;;;11.95;1.02;;;15.30;99.90;;;;;;5018804;28;20037;-74
2023/10/20 01:23:04;;;;;;;6.82;0.80;;;15.30;99.90;;;;;;5001092;28;20060;-74
2023/10/20 01:25:31;;;;;;;4.43;0.88;;;15.30;99.90;;;;;;5016187;28;20117;-74
2023/10/20 01:27:56;;;;;;;14.25;1.40;;;15.30;99.90;;;;;;5009895;28;20040;-74
2023/10/20 01:30:22;;;;;;;14.70;1.00;;;15.30;99.90;;;;;;5014798;28;20026;-74
2023/10/20 01:32:48;;;;;;;3.30;0.52;;;15.30;99.90;;;;;;5004779;28;20092;-75
2023/10/20 01:35:14;;;;;;;8.63;1.15;;;15.30;99.90;;;;;;5016799;28;20041;-74
2023/10/20 01:37:40;;;;;;;5.30;1.05;;;15.30;99.90;;;;;;5004820;28;20040;-74
2023/10/20 01:40:09;;;;;;;10.45;1.20;;;15.20;99.90;;;;;;5016341;28;20151;-74
2023/10/20 01:42:35;;;;;;;9.65;1.10;;;15.20;99.90;;;;;;5001300;28;20450;-74
2023/10/20 01:45:01;;;;;;;5.88;0.95;;;15.10;99.90;;;;;;5013464;28;20454;-74
2023/10/20 01:47:27;;;;;;;8.88;1.65;;;15.10;99.90;;;;;;5018045;28;20040;-74
2023/10/20 01:49:53;;;;;;;10.40;1.40;;;15.10;99.90;;;;;;5000891;28;20056;-74
2023/10/20 01:52:18;;;;;;;12.38;1.35;;;15.00;99.90;;;;;;5014060;28;20029;-73
2023/10/20 01:54:45;;;;;;;9.95;1.95;;;14.90;99.90;;;;;;5005785;28;20059;-74
2023/10/20 01:57:11;;;;;;;12.45;1.77;;;14.90;99.90;;;;;;5016720;28;20036;-74
2023/10/20 01:59:36;;;;;;;9.82;1.33;;;14.90;99.90;;;;;;5009090;28;20029;-74
2023/10/20 02:02:03;;;;;;;9.05;1.38;;;14.80;99.90;;;;;;5010204;28;20033;-74
2023/10/20 02:04:30;;;;;;;10.23;1.35;;;14.80;99.90;;;;;;4994902;28;21473;-74
2023/10/20 02:06:56;;;;;;;10.40;1.63;;;14.80;99.90;;;;;;5016332;28;20462;-73
2023/10/20 02:09:25;;;;;;;7.22;1.48;;;14.80;99.90;;;;;;4998238;28;20859;-74
2023/10/20 02:11:56;;;;;;;;;;;14.80;99.90;;;;;;5012849;28;20282;-74
2023/10/20 02:14:23;;;;;;;3.78;0.98;;;14.70;99.90;;;;;;5003958;28;20437;-74
2023/10/20 02:16:48;;;;;;;10.98;1.10;;;14.60;99.90;;;;;;5006644;28;20706;-74
2023/10/20 02:19:15;;;;;;;6.97;1.25;;;14.60;99.90;;;;;;5006217;28;20120;-74
2023/10/20 02:21:41;;;;;;;8.27;1.50;;;14.60;99.90;;;;;;5011212;28;21632;-74
2023/10/20 02:24:07;;;;;;;4.30;1.05;;;14.60;99.90;;;;;;5001498;28;20034;-74
2023/10/20 02:26:33;;;;;;;14.15;1.33;;;14.60;99.90;;;;;;5015674;28;20036;-74
2023/10/20 02:28:59;;;;;;;4.93;1.23;;;14.60;99.90;;;;;;5015698;28;20456;-74
2023/10/20 02:31:25;;;;;;;6.65;1.02;;;14.60;99.90;;;;;;5003340;28;20037;-74
2023/10/20 02:33:51;;;;;;;8.95;1.20;;;14.50;99.90;;;;;;5018419;28;20034;-74
2023/10/20 02:36:18;;;;;;;11.60;1.60;;;14.40;99.90;;;;;;5001219;28;20036;-75
2023/10/20 02:38:45;;;;;;;13.23;1.63;;;14.40;99.90;;;;;;5017474;28;20055;-75
2023/10/20 02:41:10;;;;;;;6.15;1.10;;;14.30;99.90;;;;;;5003579;28;20511;-75
2023/10/20 02:43:36;;;;;;;5.85;0.98;;;14.30;99.90;;;;;;5010559;28;20029;-75
2023/10/20 02:46:03;;;;;;;4.97;1.13;;;14.30;99.90;;;;;;5007201;28;20068;-75
2023/10/20 02:48:29;;;;;;;8.38;0.85;;;14.20;99.90;;;;;;5016376;28;20025;-76
2023/10/20 02:50:54;;;;;;;4.28;0.80;;;14.30;99.90;;;;;;5002222;28;20525;-75
2023/10/20 02:53:20;;;;;;;4.32;0.70;;;14.20;99.90;;;;;;5015624;28;20048;-75
2023/10/20 02:55:46;;;;;;;5.70;0.90;;;14.10;99.90;;;;;;5003582;28;20044;-75
2023/10/20 02:58:12;;;;;;;4.28;0.80;;;14.10;99.90;;;;;;5013362;28;20401;-75
2023/10/20 03:00:43;;;;;;;2.67;0.40;;;13.90;99.90;;;;;;5003836;28;20044;-75
2023/10/20 03:03:12;;;;;;;4.82;0.80;;;13.80;99.90;;;;;;5013762;28;20550;-75
2023/10/20 03:05:38;;;;;;;10.77;0.80;;;13.80;99.90;;;;;;5007775;28;21087;-75
2023/10/20 03:08:04;;;;;;;4.80;1.02;;;13.70;99.90;;;;;;5017483;28;20033;-74
2023/10/20 03:10:30;;;;;;;12.95;1.80;;;13.70;99.90;;;;;;5000589;28;20088;-73
2023/10/20 03:12:56;;;;;;;14.18;1.88;;;13.80;99.90;;;;;;5014890;28;20164;-74
2023/10/20 03:15:22;;;;;;;12.13;1.40;;;13.90;99.90;;;;;;5017915;28;20053;-74
2023/10/20 03:17:48;;;;;;;7.95;1.15;;;13.90;99.90;;;;;;4999323;28;20045;-73
2023/10/20 03:20:15;;;;;;;8.38;1.35;;;14.00;99.90;;;;;;5015596;28;20493;-73
2023/10/20 03:22:41;;;;;;;4.50;1.00;;;14.00;99.90;;;;;;4998811;28;20034;-74
2023/10/20 03:25:09;;;;;;;7.82;1.00;;;13.90;99.90;;;;;;5014624;28;20381;-74
2023/10/20 03:27:37;;;;;;;9.10;1.38;;;14.00;99.90;;;;;;5006514;28;20500;-73
2023/10/20 03:30:05;;;;;;;7.55;1.13;;;14.00;99.90;;;;;;5012964;28;20038;-74
2023/10/20 03:32:31;;;;;;;3.95;1.73;;;14.10;99.90;;;;;;5007475;28;20034;-73
2023/10/20 03:34:57;;;;;;;7.50;1.67;;;14.10;99.90;;;;;;5017385;28;20037;-74
2023/10/20 03:37:22;;;;;;;5.68;1.40;;;14.10;99.90;;;;;;5001756;28;20087;-73
2023/10/20 03:39:49;;;;;;;2.45;1.10;;;14.10;99.90;;;;;;5016885;28;20076;-73
2023/10/20 03:42:15;;;;;;;1.67;1.08;;;14.10;99.90;;;;;;5007115;28;20033;-75
2023/10/20 03:44:42;;;;;;;3.83;0.80;;;14.10;99.90;;;;;;5013397;28;20076;-75
2023/10/20 03:47:08;;;;;;;3.55;0.90;;;14.10;99.90;;;;;;5002612;28;20188;-75
2023/10/20 03:49:35;;;;;;;2.83;0.70;;;14.10;99.90;;;;;;5015123;28;20036;-75
2023/10/20 03:52:01;;;;;;;3.65;0.88;;;14.10;99.90;;;;;;4999689;28;20492;-75
2023/10/20 03:54:30;;;;;;;2.70;0.60;;;14.10;99.90;;;;;;5013708;28;20111;-75
2023/10/20 03:56:58;;;;;;;3.27;0.50;;;14.10;99.90;;;;;;5009889;28;20029;-75
2023/10/20 03:59:24;;;;;;;2.85;0.82;;;14.10;99.90;;;;;;5009321;28;20030;-75
2023/10/20 04:01:51;;;;;;;2.95;0.70;;;14.10;99.90;;;;;;5018665;28;20086;-75
2023/10/20 04:04:17;;;;;;;3.58;0.57;;;14.00;99.90;;;;;;4991310;28;20437;-74
2023/10/20 04:06:44;;;;;;;3.05;0.70;;;14.10;99.90;;;;;;5013280;28;20034;-74
2023/10/20 04:09:10;;;;;;;4.43;0.60;;;14.00;99.90;;;;;;5001201;28;20036;-74
2023/10/20 04:11:37;;;;;;;1.55;0.68;;;14.00;99.90;;;;;;4994055;28;20021;-74
2023/10/20 04:14:05;;;;;;;7.30;0.90;;;14.00;99.90;;;;;;5001924;28;20033;-74
2023/10/20 04:16:37;;;;;;;2.70;0.60;;;14.10;99.90;;;;;;5008487;28;20305;-74
2023/10/20 04:19:04;;;;;;;1.63;0.57;;;14.00;99.90;;;;;;5000167;28;20295;-73
2023/10/20 04:21:30;;;;;;;1.30;0.55;;;14.00;99.90;;;;;;5015578;28;20041;-73
2023/10/20 04:23:56;;;;;;;2.05;0.52;;;14.00;99.90;;;;;;4997471;28;20034;-73
2023/10/20 04:26:22;;;;;;;4.03;1.35;;;14.10;99.90;;;;;;5014360;28;20516;-74
2023/10/20 04:29:02;;;;;;;1.33;0.40;;;14.10;99.90;;;;;;5006729;28;20064;-74
2023/10/20 04:42:26;;;;;;;2.72;0.50;;;14.00;99.90;;;;;;5005448;28;20128;-74
2023/10/20 04:50:47;;;;;;;1.75;0.45;;;13.90;99.90;;;;;;5020839;28;20038;-74
2023/10/20 04:51:09;;;;;;;2.40;0.45;;;14.00;99.90;;;;;;5003140;28;20053;-74
2023/10/20 04:58:21;;;;;;;3.13;0.32;;;14.00;99.90;;;;;;4994550;28;20346;-74
2023/10/20 04:58:58;;;;;;;1.58;0.40;;;14.00;99.90;;;;;;5011884;28;20026;-74
2023/10/20 05:01:30;;;;;;;1.45;0.55;;;14.00;99.90;;;;;;5007935;28;20066;-74
2023/10/20 05:04:09;;;;;;;3.35;0.45;;;14.00;99.90;;;;;;5009635;28;20120;-74
2023/10/20 05:07:08;;;;;;;3.65;0.28;;;14.00;99.90;;;;;;5004504;28;20025;-74
2023/10/20 05:09:24;;;;;;;3.40;0.32;;;13.90;99.90;;;;;;5017208;28;20478;-74
2023/10/20 05:11:50;;;;;;;0.70;0.20;;;14.00;99.90;;;;;;5012816;28;20428;-73
2023/10/20 05:14:17;;;;;;;2.15;0.40;;;14.00;99.90;;;;;;5016659;28;20034;-74
2023/10/20 05:16:43;;;;;;;2.03;0.40;;;14.00;99.90;;;;;;5003499;28;20060;-73
2023/10/20 05:19:10;;;;;;;4.05;0.68;;;14.00;99.90;;;;;;5006261;28;20041;-74
2023/10/20 05:21:38;;;;;;;5.18;0.40;;;14.00;99.90;;;;;;5001986;28;20083;-74
2023/10/20 05:24:04;;;;;;;3.67;0.35;;;14.00;99.90;;;;;;5009012;28;20534;-75
2023/10/20 05:26:31;;;;;;;1.17;0.30;;;14.00;99.90;;;;;;4996794;28;20032;-74
2023/10/20 05:28:58;;;;;;;1.85;0.40;;;14.00;99.90;;;;;;5010148;28;20398;-74
2023/10/20 05:31:26;;;;;;;2.05;0.50;;;13.90;99.90;;;;;;5000503;28;20524;-75
2023/10/20 05:33:53;;;;;;;5.68;0.47;;;13.90;99.90;;;;;;5016697;28;20096;-73
2023/10/20 05:36:18;;;;;;;4.72;0.55;;;13.90;99.90;;;;;;5004317;28;20041;-74
2023/10/20 05:38:44;;;;;;;3.10;0.28;;;13.90;99.90;;;;;;5013833;28;20127;-74
2023/10/20 05:41:11;;;;;;;2.67;0.52;;;13.90;99.90;;;;;;5008101;28;20034;-73
2023/10/20 05:43:37;;;;;;;1.65;0.20;;;13.90;99.90;;;;;;5011909;28;20098;-74
2023/10/20 05:46:03;;;;;;;1.45;0.20;;;13.90;99.90;;;;;;5005812;28;20303;-73
2023/10/20 05:48:28;;;;;;;0.60;0.20;;;13.90;99.90;;;;;;5020890;28;20037;-74
2023/10/20 05:50:57;;;;;;;1.25;0.13;;;13.90;99.90;;;;;;4997641;28;20061;-74
2023/10/20 05:53:23;;;;;;;0.30;0.17;;;13.90;99.90;;;;;;5013099;28;20060;-74
2023/10/20 05:55:48;;;;;;;3.00;0.30;;;13.90;99.90;;;;;;5017646;28;20041;-74
2023/10/20 05:58:14;;;;;;;4.40;0.75;;;13.90;99.90;;;;;;4999190;28;20029;-74
2023/10/20 06:00:40;;;;;;;0.32;0.10;;;13.90;99.90;;;;;;5016409;28;20486;-74
2023/10/20 06:03:06;;;;;;;1.42;0.20;;;13.90;99.90;;;;;;5011051;28;20037;-74
2023/10/20 06:05:32;;;;;;;0.20;0.10;;;13.80;99.90;;;;;;4999591;28;20040;-75
2023/10/20 06:07:58;;;;;;;3.85;0.20;;;13.80;99.90;;;;;;5003266;28;20490;-75
2023/10/20 06:10:24;;;;;;;2.47;0.25;;;13.80;99.90;;;;;;5015297;28;20038;-75
2023/10/20 06:12:52;;;;;;;4.47;0.30;;;13.70;99.90;;;;;;4993265;28;20602;-75
2023/10/20 06:15:19;;;;;;;1.70;0.30;;;13.70;99.90;;;;;;5016366;28;20030;-75
2023/10/20 06:17:45;;;;;;;2.55;0.20;;;13.60;99.90;;;;;;5002867;28;20520;-75
2023/10/20 06:20:13;;;;;;;3.38;0.43;;;13.60;99.90;;;;;;5015942;28;20030;-75
2023/10/20 06:22:41;;;;;;;4.75;0.40;;;13.60;99.90;;;;;;5003791;28;20034;-74
2023/10/20 06:25:12;;;;;;;2.75;0.22;;;13.70;99.90;;;;;;5012598;28;20033;-75
2023/10/20 06:27:39;;;;;;;7.22;0.90;;;13.70;99.90;;;;;;5006568;28;20112;-75
2023/10/20 06:30:06;;;;;;;4.18;1.73;;;13.70;99.90;;;;;;5007744;28;20387;-75
2023/10/20 06:32:41;;;;;;;4.90;0.73;;;13.70;99.90;;;;;;4996641;28;20100;-75
2023/10/20 06:35:09;;;;;;;3.70;0.50;;;13.60;99.90;;;;;;5014608;28;20034;-75
2023/10/20 06:37:38;;;;;;;2.15;0.30;;;13.60;99.90;;;;;;4996103;28;20440;-75
2023/10/20 06:40:04;;;;;;;2.22;0.40;;;13.50;99.90;;;;;;5013354;28;20140;-75
2023/10/20 06:42:30;;;;;;;2.33;0.40;;;13.50;99.90;;;;;;5002346;28;20403;-74
2023/10/20 06:44:56;;;;;;;2.58;0.30;;;13.40;99.90;;;;;;5005184;28;20034;-75
2023/10/20 06:47:22;;;;;;;2.58;0.30;;;13.40;99.90;;;;;;5008926;28;20444;-74
2023/10/20 06:49:47;;;;;;;1.48;0.17;;;13.40;99.90;;;;;;4999289;28;20033;-75
2023/10/20 06:52:17;;;;;;;2.63;0.50;;;13.30;99.90;;;;;;5002447;28;20151;-75
2023/10/20 06:54:44;;;;;;;;;;;13.30;99.90;;;;;;5002200;28;20033;-75
2023/10/20 06:57:09;;;;;;;2.05;0.60;;;13.30;99.90;;;;;;5007582;28;19928;-75
2023/10/20 06:59:35;;;;;;;3.00;0.60;;;13.30;99.90;;;;;;4989864;28;20045;-75
2023/10/20 07:02:01;;;;;;;1.60;0.30;;;13.30;99.90;;;;;;5003237;28;20106;-74
2023/10/20 07:04:27;;;;;;;0.45;0.30;;;13.40;99.90;;;;;;4997602;28;20059;-74
2023/10/20 07:06:53;;;;;;;4.72;0.30;;;13.40;99.90;;;;;;5004382;28;20529;-74
2023/10/20 07:09:20;;;;;;;1.73;0.30;;;13.50;99.90;;;;;;4999965;28;20266;-74
2023/10/20 07:11:46;;;;;;;3.95;0.40;;;13.50;99.90;;;;;;5002611;28;20364;-75
2023/10/20 07:14:11;;;;;;;4.70;0.40;;;13.60;99.90;;;;;;4996025;28;20038;-74
2023/10/20 07:16:37;;;;;;;2.70;0.43;;;13.60;99.90;;;;;;5002963;28;20158;-75
2023/10/20 07:19:04;;;;;;;3.17;0.60;;;13.60;99.90;;;;;;4988851;28;20033;-74
2023/10/20 07:21:31;;;;;;;4.53;0.40;;;13.60;99.90;;;;;;5002309;28;20025;-74
2023/10/20 07:23:56;;;;;;;0.88;0.40;;;13.70;99.90;;;;;;4990449;28;20293;-76
2023/10/20 07:26:22;;;;;;;1.35;0.40;;;13.70;99.90;;;;;;5005675;28;20121;-75
2023/10/20 07:28:48;;;;;;;4.57;0.40;;;13.80;99.90;;;;;;5001092;28;20091;-78
2023/10/20 07:31:16;;;;;;;2.85;0.50;;;13.80;99.90;;;;;;4982466;28;20029;-75
2023/10/20 07:33:42;;;;;;;3.58;0.50;;;13.90;99.90;;;;;;5005015;28;20041;-78
2023/10/20 07:36:07;;;;;;;4.93;0.60;;;14.00;99.90;;;;;;4984736;28;20812;-77
2023/10/20 07:38:33;;;;;;;4.55;0.50;;;14.10;99.90;;;;;;4996454;28;20033;-77
2023/10/20 07:41:07;;;;;;;2.83;0.75;;;14.20;99.90;;;;;;4991694;28;20068;-75
2023/10/20 07:43:33;;;;;;;2.97;0.90;;;14.40;99.90;;;;;;4997986;28;20041;-78
2023/10/20 07:45:59;;;;;;;4.10;1.33;;;14.60;99.90;;;;;;4987910;28;20029;-76
2023/10/20 07:48:26;;;;;;;2.13;1.25;;;14.70;99.90;;;;;;5003423;28;20064;-79
2023/10/20 07:50:52;;;;;;;2.90;1.45;;;14.70;99.90;;;;;;4991250;28;20413;-77
2023/10/20 07:53:18;;;;;;;3.58;2.25;;;14.80;99.90;;;;;;5001311;28;20037;-76
2023/10/20 07:55:44;;;;;;;4.25;2.05;;;14.70;99.90;;;;;;4987666;28;21110;-78
2023/10/20 07:58:10;;;;;;;6.43;1.98;;;14.70;99.90;;;;;;5002662;28;20704;-75
2023/10/20 08:00:36;;;;;;;6.13;2.00;;;14.70;99.90;;;;;;4999272;28;20034;-74
2023/10/20 08:03:02;;;;;;;4.72;1.23;;;14.70;99.90;;;;;;5011047;28;20060;-74
2023/10/20 08:05:29;;;;;;;2.90;1.25;;;14.80;99.90;;;;;;5009898;28;20033;-79
2023/10/20 08:07:58;;;;;;;5.57;1.20;;;14.80;99.90;;;;;;5004886;28;20405;-74
2023/10/20 08:10:23;;;;;;;;;;;14.90;99.90;;;;;;5013915;28;20036;-74
2023/10/20 08:12:49;;;;;;;7.93;0.90;;;14.90;99.90;;;;;;5012663;28;19925;-75
2023/10/20 08:15:15;;;;;;;5.63;1.00;;;14.90;99.90;;;;;;5012082;28;20428;-76
2023/10/20 08:17:44;;;;;;;2.63;0.60;;;14.90;99.90;;;;;;5012565;28;20622;-76
2023/10/20 08:20:11;;;;;;;5.68;1.00;;;14.90;99.90;;;;;;5022500;28;20038;-75
2023/10/20 08:28:20;;;;;;;2.17;0.60;;;14.90;99.90;;;;;;5035818;28;20908;-75
2023/10/20 08:30:46;;;;;;;4.10;0.60;;;15.00;99.90;;;;;;5034318;28;20033;-77
2023/10/20 08:33:11;;;;;;;0.75;0.52;;;14.90;99.70;;;;;;5032022;28;20033;-76
2023/10/20 08:35:37;;;;;;;2.30;0.60;;;15.00;99.70;;;;;;5026215;28;20045;-73
2023/10/20 08:38:04;;;;;;;2.95;0.60;;;15.10;99.60;;;;;;5027604;28;20043;-74
2023/10/20 08:40:33;;;;;;;1.67;0.57;;;15.10;99.50;;;;;;5026494;28;20086;-72
2023/10/20 08:43:02;;;;;;;5.07;0.60;;;15.20;99.00;;;;;;5027876;28;20702;-73
2023/10/20 08:45:31;;;;;;;1.30;0.55;;;15.10;99.10;;;;;;5033881;28;20037;-72
2023/10/20 08:47:59;;;;;;;;;;;15.20;99.40;;;;;;5019788;28;20071;-73
2023/10/20 08:50:25;;;;;;;2.75;0.60;;;15.20;99.40;;;;;;5013184;28;20573;-71
2023/10/20 08:52:52;;;;;;;3.33;0.80;;;15.30;99.30;;;;;;5005821;28;20041;-72
2023/10/20 08:55:18;;;;;;;0.52;0.32;;;15.40;99.00;;;;;;5014536;28;20029;-70
2023/10/20 08:57:44;;;;;;;3.60;0.80;;;15.50;98.70;;;;;;5011121;28;20053;-72
2023/10/20 09:00:19;;;;;;;5.15;0.70;;;15.50;98.60;;;;;;5004246;28;20068;-71
2023/10/20 09:02:45;;;;;;;1.75;0.50;;;15.60;98.40;;;;;;4988286;28;20103;-72
2023/10/20 09:05:10;;;;;;;1.05;0.38;;;15.60;98.40;;;;;;4999396;28;20057;-72
2023/10/20 09:07:36;;;;;;;0.80;0.40;;;15.70;98.30;;;;;;4988571;28;20134;-72
2023/10/20 09:10:02;;;;;;;2.05;0.40;;;15.80;97.70;;;;;;5000734;28;20041;-71
2023/10/20 09:12:32;;;;;;;1.52;0.60;;;15.70;97.80;;;;;;4984602;28;20030;-71
2023/10/20 09:14:57;;;;;;;0.85;0.50;;;15.80;97.80;;;;;;5002879;28;20072;-71
2023/10/20 09:17:23;;;;;;;2.05;0.40;;;15.80;97.80;;;;;;5005009;28;20588;-71
2023/10/20 09:19:49;;;;;;;2.80;0.68;;;15.90;97.60;;;;;;4989970;28;20910;-72
2023/10/20 09:22:25;;;;;;;1.45;0.30;;;16.10;97.60;;;;;;5003985;28;20045;-71
2023/10/20 09:24:54;;;;;;;2.15;0.60;;;16.20;97.30;;;;;;4994356;28;20971;-72
2023/10/20 09:27:19;;;;;;;1.58;0.65;;;16.40;96.70;;;;;;5001114;28;20294;-71
2023/10/20 09:29:45;;;;;;;0.65;0.20;;;16.50;96.40;;;;;;4991961;28;20033;-72
2023/10/20 09:32:11;;;;;;;1.08;0.47;;;16.60;96.20;;;;;;4996337;28;20088;-72
2023/10/20 09:34:37;;;;;;;1.50;0.40;;;16.70;96.30;;;;;;4994381;28;20414;-72
2023/10/20 09:37:03;;;;;;;0.93;0.20;;;16.70;95.10;;;;;;5002655;28;20041;-72
2023/10/20 09:39:38;;;;;;;1.27;0.43;;;16.80;95.20;;;;;;4982538;28;20787;-71
2023/10/20 09:42:05;;;;;;;0.80;0.55;;;16.90;95.20;;;;;;5000240;28;20029;-70
2023/10/20 09:44:50;;;;;;;1.40;0.52;;;16.90;95.00;;;;;;4991268;28;20382;-71
2023/10/20 09:47:28;;;;;;;0.77;0.43;;;17.20;95.20;;;;;;5002389;28;20057;-72
2023/10/20 09:49:54;;;;;;;1.27;0.50;;;17.20;94.30;;;;;;4993738;28;20037;-71
2023/10/20 09:52:20;;;;;;;1.60;0.38;;;17.10;93.10;;;;;;5000627;28;20100;-71
2023/10/20 09:54:50;;;;;;;5.20;0.73;;;17.10;93.30;;;;;;4995803;28;20148;-72
2023/10/20 09:57:17;;;;;;;5.63;0.70;;;17.20;93.80;;;;;;5006291;28;20174;-71
2023/10/20 09:59:43;;;;;;;2.63;0.60;;;17.20;93.70;;;;;;4992914;28;20033;-71
2023/10/20 10:02:09;;;;;;;8.85;0.73;;;17.30;93.70;;;;;;5001223;28;20091;-71
2023/10/20 10:04:37;;;;;;;2.65;0.45;;;17.30;93.90;;;;;;4988743;28;20037;-72
2023/10/20 10:07:04;;;;;;;1.58;0.40;;;17.20;93.70;;;;;;4992952;28;20293;-72
2023/10/20 10:09:54;;;;;;;3.60;0.40;;;17.20;92.80;;;;;;4981765;28;20033;-72
2023/10/20 10:12:23;;;;;;;1.52;0.30;;;16.90;93.10;;;;;;4984705;28;20035;-72
2023/10/20 10:15:07;;;;;;;0.95;0.40;;;16.80;93.60;;;;;;4984103;28;20048;-71
2023/10/20 10:17:52;;;;;;;4.15;0.47;;;16.60;93.40;;;;;;4990618;28;20141;-72
2023/10/20 10:20:22;;;;;;;0.88;0.30;;;16.60;93.90;;;;;;4981892;28;20073;-72
2023/10/20 10:23:00;;;;;;;1.23;0.30;;;16.60;93.90;;;;;;5001829;28;20096;-72
2023/10/20 10:25:37;;;;;;;1.73;0.70;;;16.80;93.60;;;;;;4982557;28;20037;-74
2023/10/20 10:28:20;;;;;;;6.50;0.63;;;16.90;94.10;;;;;;5000685;28;20030;-72
2023/10/20 10:30:50;;;;;;;3.20;0.38;;;17.00;93.50;;;;;;4986658;28;20036;-72
2023/10/20 10:33:21;;;;;;;3.60;0.40;;;17.10;93.30;;;;;;4990327;28;20392;-70
2023/10/20 10:35:46;;;;;;;0.80;0.30;;;17.10;93.20;;;;;;4985205;28;20129;-72
2023/10/20 10:38:21;;;;;;;8.50;0.73;;;17.20;93.50;;;;;;5004098;28;20995;-73
2023/10/20 10:40:51;;;;;;;5.53;0.70;;;17.20;93.30;;;;;;4993895;28;20500;-74
2023/10/20 10:43:18;;;;;;;4.63;0.70;;;17.20;93.40;;;;;;5005745;28;21115;-73
2023/10/20 10:45:44;;;;;;;3.35;0.75;;;17.20;93.00;;;;;;4987584;28;20765;-74
2023/10/20 10:48:12;;;;;;;6.72;0.82;;;17.10;92.80;;;;;;5002934;28;20100;-71
2023/10/20 10:50:40;;;;;;;11.00;1.52;;;17.10;93.40;;;;;;5001764;28;20720;-73
2023/10/20 10:53:06;;;;;;;10.65;0.95;;;17.20;93.50;;;;;;4996272;28;20025;-74
2023/10/20 10:55:34;;;;;;;4.35;1.13;;;17.20;92.80;;;;;;5007859;28;20059;-73
2023/10/20 10:58:02;;;;;;;7.43;0.93;;;17.40;93.00;;;;;;4986307;28;20044;-74
2023/10/20 11:00:28;;;;;;;9.07;0.95;;;17.40;92.60;;;;;;5003718;28;20775;-75
2023/10/20 11:02:57;;;;;;;1.50;0.75;;;17.50;92.50;;;;;;4994825;28;20048;-73
2023/10/20 11:05:23;;;;;;;4.03;0.67;;;17.40;92.50;;;;;;5002517;28;20033;-73
2023/10/20 11:08:07;;;;;;;6.03;1.80;;;17.40;92.50;;;;;;4994313;28;20036;-73
2023/10/20 11:10:37;;;;;;;5.63;0.93;;;17.40;92.70;;;;;;5009116;28;20033;-74
2023/10/20 11:13:08;;;;;;;9.95;1.15;;;17.40;93.00;;;;;;4993999;28;20074;-72
2023/10/20 11:15:35;;;;;;;7.93;0.90;;;17.50;92.60;;;;;;5009718;28;20855;-72
2023/10/20 11:18:02;;;;;;;4.15;0.85;;;17.70;92.10;;;;;;5000192;28;20497;-74
2023/10/20 11:20:29;;;;;;;7.28;1.05;;;18.00;91.70;;;;;;5011211;28;20101;-72
2023/10/20 11:22:55;;;;;;;10.90;1.73;;;18.20;91.40;;;;;;5004390;28;20033;-75
2023/10/20 11:25:22;;;;;;;4.28;1.10;;;18.30;90.80;;;;;;5008375;28;21039;-74
2023/10/20 11:27:54;;;;;;;6.07;0.98;;;18.60;90.80;;;;;;4993206;28;20103;-74
2023/10/20 11:30:25;;;;;;;6.22;1.48;;;18.70;90.30;;;;;;5007595;28;20394;-72
2023/10/20 11:32:54;;;;;;;7.40;1.15;;;18.50;90.40;;;;;;4989984;28;20044;-74
2023/10/20 11:35:21;;;;;;;5.47;0.90;;;18.50;91.20;;;;;;5007462;28;20109;-72
2023/10/20 11:37:48;;;;;;;5.07;0.80;;;18.70;90.70;;;;;;4985149;28;20087;-72
2023/10/20 11:40:15;;;;;;;13.75;1.27;;;18.70;90.60;;;;;;4995970;28;20044;-73
2023/10/20 11:42:41;;;;;;;5.65;1.10;;;18.80;90.30;;;;;;4996273;28;20814;-73
2023/10/20 11:45:07;;;;;;;6.53;1.20;;;19.10;90.10;;;;;;5005323;28;20037;-73
2023/10/20 11:47:33;;;;;;;6.78;0.90;;;19.40;89.10;;;;;;4995142;28;20032;-76
2023/10/20 11:49:59;;;;;;;9.77;1.25;;;19.40;87.80;;;;;;5007664;28;20091;-75
2023/10/20 11:52:25;;;;;;;7.43;1.50;;;19.40;89.50;;;;;;5012120;28;20048;-74
2023/10/20 11:54:51;;;;;;;5.00;0.90;;;19.60;85.70;;;;;;5006659;28;20064;-74
2023/10/20 11:57:17;;;;;;;6.10;1.20;;;19.80;86.80;;;;;;5014630;28;20120;-74
2023/10/20 11:59:44;;;;;;;8.23;1.20;;;20.00;85.10;;;;;;5001179;28;20188;-73
2023/10/20 12:02:09;;;;;;;6.95;1.15;;;20.00;84.00;;;;;;5017106;28;20217;-73
2023/10/20 12:04:35;;;;;;;9.60;1.52;;;20.00;82.80;;;;;;5010176;28;20069;-73
2023/10/20 12:07:01;;;;;;;12.13;1.40;;;20.20;84.20;;;;;;5019039;28;20040;-73
2023/10/20 12:09:26;;;;;;;15.98;1.83;;;20.20;83.50;;;;;;4997708;28;20037;-73
2023/10/20 12:11:52;;;;;;;8.45;1.23;;;20.00;84.20;;;;;;5011995;28;20258;-74
2023/10/20 12:14:18;;;;;;;6.60;1.23;;;19.80;83.30;;;;;;5004774;28;20426;-74
2023/10/20 12:16:45;;;;;;;5.78;1.25;;;19.70;83.40;;;;;;5017213;28;20517;-73
2023/10/20 12:19:11;;;;;;;8.13;1.40;;;19.50;84.90;;;;;;4999847;28;20071;-74
2023/10/20 12:21:37;;;;;;;9.25;1.85;;;19.40;86.00;;;;;;5019474;28;20147;-74
2023/10/20 12:24:03;;;;;;;12.68;2.83;;;19.10;86.80;;;;;;5014935;28;20542;-74
2023/10/20 12:26:29;;;;;;;12.23;2.05;;;19.30;87.60;;;;;;5018813;28;20021;-73
2023/10/20 12:28:58;;;;;;;5.00;1.30;;;19.50;86.60;;;;;;5017927;28;20044;-75
2023/10/20 12:31:25;;;;;;;;;;;19.50;85.60;;;;;;5019209;28;20503;-75
2023/10/20 12:33:51;;;;;;;9.45;1.48;;;19.30;86.50;;;;;;5013736;28;19943;-75
2023/10/20 12:36:17;;;;;;;10.73;1.60;;;19.40;86.10;;;;;;5006748;28;20160;-74
2023/10/20 12:38:44;;;;;;;14.23;1.98;;;19.40;87.10;;;;;;5007401;28;20038;-73
2023/10/20 12:41:11;;;;;;;10.25;1.52;;;19.80;85.60;;;;;;4997142;28;20045;-73
2023/10/20 12:43:37;;;;;;;7.63;1.80;;;20.20;83.20;;;;;;5016624;28;20437;-72
2023/10/20 12:46:04;;;;;;;7.40;1.30;;;20.10;83.80;;;;;;5001332;28;20539;-73
2023/10/20 12:48:30;;;;;;;7.22;1.80;;;20.30;83.70;;;;;;5019661;28;20115;-74
2023/10/20 12:50:57;;;;;;;6.80;1.30;;;20.40;83.40;;;;;;5006897;28;20078;-74
2023/10/20 12:53:23;;;;;;;8.73;1.20;;;20.80;82.50;;;;;;5013401;28;20029;-73
2023/10/20 12:55:49;;;;;;;12.85;1.83;;;21.00;81.00;;;;;;5003241;28;20038;-73
2023/10/20 12:58:15;;;;;;;8.25;1.77;;;20.90;82.30;;;;;;5008712;28;20056;-73
2023/10/20 13:00:40;;;;;;;11.52;1.70;;;20.50;83.10;;;;;;4999753;28;20041;-73
2023/10/20 13:03:08;;;;;;;9.35;1.40;;;20.20;83.40;;;;;;5008484;28;20036;-72
2023/10/20 13:05:33;;;;;;;6.40;1.30;;;19.90;84.20;;;;;;5000332;28;20164;-73
2023/10/20 13:08:00;;;;;;;5.40;1.40;;;20.00;84.00;;;;;;5009141;28;20170;-73